Time;durP1;ratioP1;P1;durP2;ratioP2;P2;SDS_P1;SDS_P2;PMS_P1;PMS_P2;Temp;Humidity;BMP_temperature;BMP_pressure;BME280_temperature;BME280_humidity;BME280_pressure;Samples;Min_cycle;Max_cycle;Signal;HPM_P1;HPM_P2
2021/12/28 00:01:24;;;;;;;0.20;0.20;;;0.90;99.90;;;;;;4922335;29;20738;-68
2021/12/28 00:03:53;;;;;;;0.15;0.15;;;0.90;99.90;;;;;;4928841;29;20314;-71
2021/12/28 00:06:21;;;;;;;0.10;0.10;;;0.90;99.90;;;;;;4944772;28;20215;-71
2021/12/28 00:08:49;;;;;;;0.10;0.10;;;0.80;99.90;;;;;;4930835;29;20209;-71
2021/12/28 00:11:17;;;;;;;0.20;0.20;;;0.90;99.90;;;;;;4930303;29;20642;-71
2021/12/28 00:13:44;;;;;;;0.10;0.10;;;0.80;99.90;;;;;;4929662;29;20654;-72
2021/12/28 00:16:30;;;;;;;0.10;0.10;;;0.80;99.90;;;;;;4927846;29;20199;-71
2021/12/28 00:19:01;;;;;;;0.13;0.13;;;0.80;99.90;;;;;;4933505;29;20653;-71
2021/12/28 00:21:28;;;;;;;0.13;0.13;;;0.80;99.90;;;;;;4918370;29;20654;-68
2021/12/28 00:23:57;;;;;;;0.20;0.20;;;0.80;99.90;;;;;;4930411;28;20659;-70
2021/12/28 00:26:24;;;;;;;0.10;0.10;;;0.80;99.90;;;;;;4925663;29;21261;-68
2021/12/28 00:28:53;;;;;;;0.10;0.10;;;0.80;99.90;;;;;;4928740;29;20577;-71
2021/12/28 00:31:22;;;;;;;0.10;0.10;;;0.80;99.90;;;;;;4933398;28;20245;-71
2021/12/28 00:33:48;;;;;;;0.20;0.20;;;0.80;99.90;;;;;;4925403;29;20620;-70
2021/12/28 00:36:17;;;;;;;0.10;0.10;;;0.80;99.90;;;;;;4943718;28;20211;-70
2021/12/28 00:38:44;;;;;;;0.10;0.10;;;0.80;99.90;;;;;;4931004;28;20223;-72
2021/12/28 00:41:12;;;;;;;0.20;0.20;;;0.80;99.90;;;;;;4930082;28;20671;-71
2021/12/28 00:43:39;;;;;;;0.15;0.15;;;0.80;99.90;;;;;;4930159;29;20227;-72
2021/12/28 00:46:07;;;;;;;0.10;0.10;;;0.80;99.90;;;;;;4928587;29;20255;-71
2021/12/28 00:48:35;;;;;;;0.10;0.10;;;0.70;99.90;;;;;;4920795;29;20627;-71
2021/12/28 00:51:02;;;;;;;0.10;0.10;;;0.70;99.90;;;;;;4924550;29;20230;-71
2021/12/28 00:53:30;;;;;;;0.10;0.10;;;0.80;99.90;;;;;;4930518;28;20278;-71
2021/12/28 00:55:58;;;;;;;0.10;0.10;;;0.70;99.90;;;;;;4943961;28;20627;-69
2021/12/28 00:58:25;;;;;;;0.10;0.10;;;0.70;99.90;;;;;;4932773;28;20226;-72
2021/12/28 01:00:53;;;;;;;0.10;0.10;;;0.70;99.90;;;;;;4929373;29;20238;-71
2021/12/28 01:03:21;;;;;;;0.20;0.20;;;0.70;99.90;;;;;;4925572;29;21113;-71
2021/12/28 01:05:48;;;;;;;0.20;0.20;;;0.70;99.90;;;;;;4929331;29;20646;-71
2021/12/28 01:08:16;;;;;;;0.10;0.10;;;0.70;99.90;;;;;;4931510;29;20619;-71
2021/12/28 01:10:47;;;;;;;0.10;0.10;;;0.70;99.90;;;;;;4929292;29;20251;-72
2021/12/28 01:13:15;;;;;;;0.10;0.10;;;0.70;99.90;;;;;;4927248;29;20231;-72
2021/12/28 01:15:43;;;;;;;0.10;0.10;;;0.70;99.90;;;;;;4935865;28;20714;-71
2021/12/28 01:18:12;;;;;;;0.10;0.10;;;0.70;99.90;;;;;;4932076;29;20621;-70
2021/12/28 01:20:39;;;;;;;0.20;0.20;;;0.70;99.90;;;;;;4934468;28;20733;-71
2021/12/28 01:23:08;;;;;;;0.10;0.10;;;0.70;99.90;;;;;;4932582;29;20314;-71
2021/12/28 01:25:35;;;;;;;0.10;0.10;;;0.80;99.90;;;;;;4929740;29;20658;-72
2021/12/28 01:28:05;;;;;;;0.10;0.10;;;0.80;99.90;;;;;;4931830;29;20678;-71
2021/12/28 01:30:33;;;;;;;0.20;0.20;;;0.80;99.90;;;;;;4933263;29;20286;-69
2021/12/28 01:33:01;;;;;;;0.20;0.20;;;0.80;99.90;;;;;;4945980;28;20217;-71
2021/12/28 01:35:29;;;;;;;0.20;0.20;;;0.80;99.90;;;;;;4925802;29;20239;-72
2021/12/28 01:37:57;;;;;;;0.10;0.10;;;0.80;99.90;;;;;;4926648;29;20267;-70
2021/12/28 01:40:27;;;;;;;0.10;0.10;;;0.90;99.90;;;;;;4934922;29;20665;-72
2021/12/28 01:43:00;;;;;;;0.10;0.10;;;0.90;99.90;;;;;;4933181;28;20619;-71
2021/12/28 01:45:34;;;;;;;0.10;0.10;;;0.90;99.90;;;;;;4931717;29;20634;-70
2021/12/28 01:48:01;;;;;;;0.10;0.10;;;0.90;99.90;;;;;;4930459;29;20641;-71
2021/12/28 01:50:28;;;;;;;0.20;0.20;;;1.00;99.90;;;;;;4929907;29;20670;-70
2021/12/28 01:52:55;;;;;;;0.10;0.10;;;1.00;99.90;;;;;;4930759;29;20722;-70
2021/12/28 01:55:23;;;;;;;0.10;0.10;;;1.00;99.90;;;;;;4928817;29;20203;-71
2021/12/28 01:57:50;;;;;;;0.10;0.10;;;1.00;99.90;;;;;;4930838;29;20211;-71
2021/12/28 02:00:18;;;;;;;0.10;0.10;;;1.00;99.90;;;;;;4930334;29;20682;-70
2021/12/28 02:02:46;;;;;;;0.10;0.10;;;1.10;99.90;;;;;;4935657;28;20623;-71
2021/12/28 02:05:13;;;;;;;0.10;0.10;;;1.10;99.90;;;;;;4930346;29;20681;-71
2021/12/28 02:07:41;;;;;;;0.20;0.20;;;1.10;99.90;;;;;;4933407;28;20647;-71
2021/12/28 02:10:08;;;;;;;0.13;0.13;;;1.10;99.90;;;;;;4930257;29;20682;-72
2021/12/28 02:12:36;;;;;;;0.10;0.10;;;1.20;99.90;;;;;;4930163;29;20703;-71
2021/12/28 02:15:06;;;;;;;0.10;0.10;;;1.20;99.90;;;;;;4925790;29;20634;-72
2021/12/28 02:17:34;;;;;;;0.10;0.10;;;1.20;99.90;;;;;;4925951;29;20635;-71
2021/12/28 02:20:07;;;;;;;0.10;0.10;;;1.20;99.90;;;;;;4929459;29;21057;-71
2021/12/28 02:22:33;;;;;;;0.10;0.10;;;1.20;99.90;;;;;;4929885;29;20207;-70
2021/12/28 02:25:00;;;;;;;0.20;0.20;;;1.20;99.90;;;;;;4928755;29;20647;-71
2021/12/28 02:27:29;;;;;;;0.10;0.10;;;1.20;99.90;;;;;;4924347;29;20730;-70
2021/12/28 02:29:56;;;;;;;0.20;0.20;;;1.30;99.90;;;;;;4930328;29;20626;-70
2021/12/28 02:32:26;;;;;;;0.10;0.10;;;1.30;99.90;;;;;;4927531;29;20635;-71
2021/12/28 02:34:54;;;;;;;0.20;0.20;;;1.30;99.90;;;;;;4930623;29;20623;-68
2021/12/28 02:37:23;;;;;;;0.10;0.10;;;1.30;99.90;;;;;;4924626;29;20616;-71
2021/12/28 02:39:50;;;;;;;0.20;0.20;;;1.30;99.90;;;;;;4929794;29;20662;-71
2021/12/28 02:42:18;;;;;;;0.10;0.10;;;1.30;99.90;;;;;;4931624;29;20669;-72
2021/12/28 02:44:45;;;;;;;0.13;0.13;;;1.30;99.90;;;;;;4929746;29;20663;-70
2021/12/28 02:47:17;;;;;;;0.17;0.17;;;1.40;99.90;;;;;;4925971;29;20633;-72
2021/12/28 02:49:44;;;;;;;0.10;0.10;;;1.40;99.90;;;;;;4931675;29;20650;-72
2021/12/28 02:52:11;;;;;;;0.10;0.10;;;1.30;99.90;;;;;;4928992;29;20667;-71
2021/12/28 02:54:40;;;;;;;0.10;0.10;;;1.30;99.90;;;;;;4930263;29;20642;-71
2021/12/28 02:57:08;;;;;;;0.10;0.10;;;1.30;99.90;;;;;;4929710;29;20627;-71
2021/12/28 02:59:44;;;;;;;0.10;0.10;;;1.40;99.90;;;;;;4931531;29;20619;-72
2021/12/28 03:02:11;;;;;;;0.10;0.10;;;1.40;99.90;;;;;;4931117;29;21013;-72
2021/12/28 03:04:39;;;;;;;0.10;0.10;;;1.40;99.90;;;;;;4934948;28;20686;-71
2021/12/28 03:07:06;;;;;;;0.10;0.10;;;1.40;99.90;;;;;;4929455;29;20982;-71
2021/12/28 03:09:33;;;;;;;0.20;0.20;;;1.40;99.90;;;;;;4929760;29;20207;-71
2021/12/28 03:12:01;;;;;;;0.10;0.10;;;1.40;99.90;;;;;;4929307;29;20659;-71
2021/12/28 03:14:28;;;;;;;0.10;0.10;;;1.40;99.90;;;;;;4927792;29;20654;-70
2021/12/28 03:16:55;;;;;;;0.10;0.10;;;1.40;99.90;;;;;;4930341;29;20663;-71
2021/12/28 03:19:22;;;;;;;0.10;0.10;;;1.40;99.90;;;;;;4928749;29;20635;-71
2021/12/28 03:21:50;;;;;;;0.10;0.10;;;1.50;99.90;;;;;;4928122;29;20690;-71
2021/12/28 03:24:18;;;;;;;0.10;0.10;;;1.50;99.90;;;;;;4928535;29;20666;-72
2021/12/28 03:26:45;;;;;;;0.10;0.10;;;1.50;99.90;;;;;;4929145;29;20642;-71
2021/12/28 03:29:13;;;;;;;0.10;0.10;;;1.50;99.90;;;;;;4930699;29;20706;-72
2021/12/28 03:31:40;;;;;;;0.20;0.20;;;1.50;99.90;;;;;;4930988;28;20674;-71
2021/12/28 03:34:07;;;;;;;0.10;0.10;;;1.50;99.90;;;;;;4927922;29;20641;-72
2021/12/28 03:36:34;;;;;;;0.10;0.10;;;1.50;99.90;;;;;;4929797;29;20638;-71
2021/12/28 03:39:02;;;;;;;0.10;0.10;;;1.50;99.90;;;;;;4925294;29;20627;-72
2021/12/28 03:41:34;;;;;;;0.10;0.10;;;1.50;99.90;;;;;;4928820;29;20710;-73
2021/12/28 03:44:02;;;;;;;0.10;0.10;;;1.50;99.90;;;;;;4929236;29;20655;-72
2021/12/28 03:46:31;;;;;;;0.10;0.10;;;1.50;99.90;;;;;;4930216;29;20654;-72
2021/12/28 03:48:58;;;;;;;0.10;0.10;;;1.50;99.90;;;;;;4926975;29;20655;-72
2021/12/28 03:51:25;;;;;;;0.10;0.10;;;1.60;99.90;;;;;;4928554;29;20670;-69
2021/12/28 03:53:53;;;;;;;0.10;0.10;;;1.60;99.90;;;;;;4927951;29;20631;-71
2021/12/28 03:56:21;;;;;;;0.10;0.10;;;1.60;99.90;;;;;;4925925;29;20617;-71
2021/12/28 03:58:49;;;;;;;0.20;0.20;;;1.60;99.90;;;;;;4926871;29;20623;-71
2021/12/28 04:01:19;;;;;;;0.10;0.10;;;1.60;99.90;;;;;;4928833;29;20667;-71
2021/12/28 04:03:48;;;;;;;0.10;0.10;;;1.60;99.90;;;;;;4928472;29;20663;-71
2021/12/28 04:06:18;;;;;;;0.10;0.10;;;1.60;99.90;;;;;;4929317;29;20635;-71
2021/12/28 04:08:45;;;;;;;0.10;0.10;;;1.60;99.90;;;;;;4929815;29;20710;-71
2021/12/28 04:11:25;;;;;;;0.10;0.10;;;1.60;99.90;;;;;;4930190;29;20675;-69
2021/12/28 04:13:58;;;;;;;0.10;0.10;;;1.50;99.90;;;;;;4928749;29;20682;-71
2021/12/28 04:16:26;;;;;;;0.10;0.10;;;1.50;99.90;;;;;;4941999;28;20722;-71
2021/12/28 04:18:54;;;;;;;0.10;0.10;;;1.50;99.90;;;;;;4928710;29;20634;-71
2021/12/28 04:21:22;;;;;;;0.10;0.10;;;1.50;99.90;;;;;;4926853;29;20722;-71
2021/12/28 04:23:49;;;;;;;0.10;0.10;;;1.50;99.90;;;;;;4928823;29;20611;-71
2021/12/28 04:26:17;;;;;;;0.20;0.20;;;1.50;99.90;;;;;;4925941;29;20615;-70
2021/12/28 04:28:44;;;;;;;0.10;0.10;;;1.50;99.90;;;;;;4926134;29;20635;-71
2021/12/28 04:31:12;;;;;;;0.10;0.10;;;1.50;99.90;;;;;;4928069;29;20655;-71
2021/12/28 04:33:39;;;;;;;0.17;0.17;;;1.50;99.90;;;;;;4928119;29;20655;-71
2021/12/28 04:36:11;;;;;;;0.10;0.10;;;1.50;99.90;;;;;;4925796;29;20659;-70
2021/12/28 04:38:39;;;;;;;0.10;0.10;;;1.50;99.90;;;;;;4929597;29;20619;-68
2021/12/28 04:41:06;;;;;;;0.10;0.10;;;1.50;99.90;;;;;;4927649;29;20761;-70
2021/12/28 04:43:33;;;;;;;0.20;0.20;;;1.50;99.90;;;;;;4924665;29;20619;-71
2021/12/28 04:46:00;;;;;;;0.10;0.10;;;1.50;99.90;;;;;;4925955;29;20678;-69
2021/12/28 04:48:28;;;;;;;0.10;0.10;;;1.50;99.90;;;;;;4923976;29;20642;-71
2021/12/28 04:50:55;;;;;;;0.10;0.10;;;1.50;99.90;;;;;;4931756;29;20750;-71
2021/12/28 04:53:24;;;;;;;0.20;0.20;;;1.50;99.90;;;;;;4931817;29;20639;-69
2021/12/28 04:55:53;;;;;;;0.10;0.10;;;1.50;99.90;;;;;;4927661;29;20647;-70
2021/12/28 04:58:20;;;;;;;0.10;0.10;;;1.50;99.90;;;;;;4927499;29;20752;-71
2021/12/28 05:00:50;;;;;;;0.10;0.10;;;1.50;99.90;;;;;;4930622;29;20707;-71
2021/12/28 05:03:18;;;;;;;0.10;0.10;;;1.50;99.90;;;;;;4927233;29;20703;-71
2021/12/28 05:05:48;;;;;;;0.10;0.10;;;1.50;99.90;;;;;;4932013;29;20667;-71
2021/12/28 05:08:16;;;;;;;0.10;0.10;;;1.50;99.90;;;;;;4932150;29;20615;-71
2021/12/28 05:10:44;;;;;;;0.10;0.10;;;1.50;99.90;;;;;;4933811;29;20654;-70
2021/12/28 05:13:12;;;;;;;0.10;0.10;;;1.60;99.90;;;;;;4934087;29;20607;-69
2021/12/28 05:15:42;;;;;;;0.20;0.20;;;1.60;99.90;;;;;;4931890;29;20722;-70
2021/12/28 05:18:09;;;;;;;0.10;0.10;;;1.60;99.90;;;;;;4932975;29;20617;-71
2021/12/28 05:20:36;;;;;;;0.10;0.10;;;1.60;99.90;;;;;;4930939;29;20670;-70
2021/12/28 05:23:04;;;;;;;0.10;0.10;;;1.70;99.90;;;;;;4931505;29;20635;-71
2021/12/28 05:25:32;;;;;;;0.10;0.10;;;1.70;99.90;;;;;;4932945;29;20667;-70
2021/12/28 05:28:00;;;;;;;0.10;0.10;;;1.70;99.90;;;;;;4935491;29;20634;-70
2021/12/28 05:30:27;;;;;;;0.10;0.10;;;1.80;99.90;;;;;;4935820;29;20730;-71
2021/12/28 05:32:54;;;;;;;0.10;0.10;;;1.80;99.90;;;;;;4933869;29;20686;-70
2021/12/28 05:35:21;;;;;;;0.10;0.10;;;1.80;99.90;;;;;;4932713;29;20634;-70
2021/12/28 05:37:48;;;;;;;0.10;0.10;;;1.80;99.90;;;;;;4931253;29;20631;-71
2021/12/28 05:40:16;;;;;;;0.10;0.10;;;1.90;99.90;;;;;;4932160;29;20638;-70
2021/12/28 05:42:44;;;;;;;0.10;0.10;;;1.90;99.90;;;;;;4932176;29;20639;-72
2021/12/28 05:45:13;;;;;;;0.10;0.10;;;1.90;99.90;;;;;;4931834;29;20662;-72
2021/12/28 05:47:40;;;;;;;0.10;0.10;;;1.90;99.90;;;;;;4933056;29;20642;-71
2021/12/28 05:50:10;;;;;;;0.10;0.10;;;1.90;99.90;;;;;;4932461;29;20981;-72
2021/12/28 05:52:37;;;;;;;0.10;0.10;;;1.90;99.90;;;;;;4931498;29;20698;-71
2021/12/28 05:55:06;;;;;;;0.10;0.10;;;1.90;99.90;;;;;;4930719;29;20619;-72
2021/12/28 05:57:33;;;;;;;0.10;0.10;;;1.90;99.90;;;;;;4928455;29;20729;-71
2021/12/28 06:00:00;;;;;;;0.10;0.10;;;1.90;99.90;;;;;;4930885;29;20666;-69
2021/12/28 06:02:28;;;;;;;0.10;0.10;;;1.90;99.90;;;;;;4928927;29;20698;-69
2021/12/28 06:04:55;;;;;;;0.20;0.20;;;2.00;99.90;;;;;;4932160;29;20658;-70
2021/12/28 06:07:27;;;;;;;0.10;0.10;;;2.00;99.90;;;;;;4930182;29;20634;-71
2021/12/28 06:09:54;;;;;;;0.20;0.20;;;2.00;99.90;;;;;;4930897;29;20630;-69
2021/12/28 06:12:21;;;;;;;0.10;0.10;;;2.10;99.90;;;;;;4928463;29;20682;-70
2021/12/28 06:14:48;;;;;;;0.17;0.17;;;2.00;99.90;;;;;;4932191;29;20622;-70
2021/12/28 06:17:15;;;;;;;0.10;0.10;;;2.10;99.90;;;;;;4926625;29;20635;-71
2021/12/28 06:19:43;;;;;;;0.20;0.20;;;2.10;99.90;;;;;;4933055;29;20670;-70
2021/12/28 06:22:11;;;;;;;0.13;0.13;;;2.10;99.90;;;;;;4930350;29;20651;-71
2021/12/28 06:24:38;;;;;;;0.10;0.10;;;2.10;99.90;;;;;;4932570;29;20651;-71
2021/12/28 06:27:05;;;;;;;0.10;0.10;;;2.10;99.90;;;;;;4933621;29;20626;-71
2021/12/28 06:29:32;;;;;;;0.20;0.20;;;2.10;99.90;;;;;;4932177;29;20718;-70
2021/12/28 06:31:59;;;;;;;0.10;0.10;;;2.20;99.90;;;;;;4929426;29;20745;-71
2021/12/28 06:34:26;;;;;;;0.10;0.10;;;2.10;99.90;;;;;;4931632;29;20623;-71
2021/12/28 06:36:55;;;;;;;0.10;0.10;;;;;;;;;;4941544;28;20630;-67
2021/12/28 06:39:25;;;;;;;0.17;0.17;;;;;;;;;;4930733;29;20693;-71
2021/12/28 06:41:52;;;;;;;0.10;0.10;;;;;;;;;;4932399;29;20746;-70
2021/12/28 06:44:19;;;;;;;0.20;0.20;;;;;;;;;;4932384;29;20615;-71
2021/12/28 06:46:47;;;;;;;0.10;0.10;;;;;;;;;;4926957;29;20683;-70
2021/12/28 06:49:14;;;;;;;0.10;0.10;;;;;;;;;;4931457;29;20647;-68
2021/12/28 06:51:41;;;;;;;0.13;0.13;;;;;;;;;;4928447;29;20679;-70
2021/12/28 06:54:10;;;;;;;0.10;0.10;;;;;;;;;;4931573;29;20662;-69
2021/12/28 06:56:37;;;;;;;0.10;0.10;;;2.20;99.90;;;;;;4930376;29;20678;-69
2021/12/28 06:59:05;;;;;;;0.10;0.10;;;2.20;99.90;;;;;;4929212;29;20631;-70
2021/12/28 07:01:32;;;;;;;0.13;0.13;;;2.20;99.90;;;;;;4929730;29;20670;-73
2021/12/28 07:03:59;;;;;;;0.10;0.10;;;2.20;99.90;;;;;;4928059;29;20639;-70
2021/12/28 07:06:27;;;;;;;0.20;0.20;;;2.20;99.90;;;;;;4926774;29;20750;-71
2021/12/28 07:08:54;;;;;;;0.13;0.13;;;2.30;99.90;;;;;;4930607;29;20619;-71
2021/12/28 07:11:23;;;;;;;0.10;0.10;;;2.30;99.90;;;;;;4930060;29;20670;-68
2021/12/28 07:13:50;;;;;;;0.10;0.10;;;2.30;99.90;;;;;;4931286;29;20621;-69
2021/12/28 07:16:19;;;;;;;0.10;0.10;;;2.30;99.90;;;;;;4931572;29;20615;-71
2021/12/28 07:18:46;;;;;;;0.10;0.10;;;2.30;99.90;;;;;;4931143;29;20714;-71
2021/12/28 07:21:13;;;;;;;0.10;0.10;;;2.30;99.90;;;;;;4932019;29;20647;-71
2021/12/28 07:23:40;;;;;;;0.10;0.10;;;2.30;99.90;;;;;;4932447;29;20643;-69
2021/12/28 07:26:07;;;;;;;0.10;0.10;;;2.30;99.90;;;;;;4930993;29;20663;-70
2021/12/28 07:28:35;;;;;;;0.10;0.10;;;2.30;99.90;;;;;;4932968;29;20709;-70
2021/12/28 07:31:03;;;;;;;0.10;0.10;;;2.30;99.90;;;;;;4948634;28;20666;-68
2021/12/28 07:33:30;;;;;;;0.10;0.10;;;2.30;99.90;;;;;;4931270;29;20651;-71
2021/12/28 07:35:56;;;;;;;0.10;0.10;;;2.40;99.90;;;;;;4929875;29;20631;-68
2021/12/28 07:38:23;;;;;;;0.10;0.10;;;2.40;99.90;;;;;;4929940;29;20670;-70
2021/12/28 07:40:50;;;;;;;0.10;0.10;;;2.40;99.90;;;;;;4927590;29;20663;-72
2021/12/28 07:43:17;;;;;;;0.10;0.10;;;2.40;99.90;;;;;;4933665;29;20639;-71
2021/12/28 07:45:46;;;;;;;0.10;0.10;;;2.40;99.90;;;;;;4933519;29;20659;-71
2021/12/28 07:48:13;;;;;;;0.10;0.10;;;2.40;99.90;;;;;;4927276;29;21337;-71
2021/12/28 07:50:40;;;;;;;0.10;0.10;;;2.40;99.90;;;;;;4929464;29;20714;-71
2021/12/28 07:53:07;;;;;;;0.10;0.10;;;2.50;99.90;;;;;;4929442;29;20623;-71
2021/12/28 07:55:34;;;;;;;0.13;0.13;;;2.50;99.90;;;;;;4931025;29;20650;-71
2021/12/28 07:58:01;;;;;;;0.10;0.10;;;;;;;;;;4930993;29;20607;-71
2021/12/28 08:00:28;;;;;;;0.10;0.10;;;;;;;;;;4930128;29;20756;-69
2021/12/28 08:03:00;;;;;;;0.10;0.10;;;;;;;;;;4929006;29;20623;-70
2021/12/28 08:05:28;;;;;;;0.10;0.10;;;;;;;;;;4929937;29;21050;-71
2021/12/28 08:07:55;;;;;;;0.10;0.10;;;;;;;;;;4929716;29;20635;-71
2021/12/28 08:10:22;;;;;;;0.10;0.10;;;2.50;99.90;;;;;;4930390;29;20687;-71
2021/12/28 08:12:49;;;;;;;0.10;0.10;;;2.60;99.90;;;;;;4924171;29;20646;-71
2021/12/28 08:15:16;;;;;;;0.10;0.10;;;2.60;99.90;;;;;;4931640;29;20618;-71
2021/12/28 08:17:43;;;;;;;0.10;0.10;;;2.60;99.90;;;;;;4930643;29;20607;-71
2021/12/28 08:20:14;;;;;;;0.10;0.10;;;2.70;99.90;;;;;;4930552;29;20631;-71
2021/12/28 08:22:42;;;;;;;0.10;0.10;;;2.70;99.90;;;;;;4928981;29;20619;-70
2021/12/28 08:25:12;;;;;;;0.10;0.10;;;2.70;99.90;;;;;;4931588;29;20641;-71
2021/12/28 08:27:40;;;;;;;0.10;0.10;;;2.70;99.90;;;;;;4934099;29;20662;-72
2021/12/28 08:30:09;;;;;;;0.10;0.10;;;2.70;99.90;;;;;;4934760;29;20606;-71
2021/12/28 08:32:36;;;;;;;0.20;0.20;;;2.80;99.90;;;;;;4934918;29;20642;-71
2021/12/28 08:35:04;;;;;;;0.13;0.13;;;2.80;99.90;;;;;;4935364;29;20615;-71
2021/12/28 08:37:33;;;;;;;0.20;0.20;;;2.80;99.90;;;;;;4932593;29;20730;-71
2021/12/28 08:40:00;;;;;;;0.10;0.10;;;2.90;99.90;;;;;;4931193;29;20718;-71
2021/12/28 08:42:28;;;;;;;0.20;0.20;;;2.90;99.90;;;;;;4936463;29;21172;-71
2021/12/28 08:44:54;;;;;;;0.10;0.10;;;2.90;99.90;;;;;;4935846;28;20619;-71
2021/12/28 08:47:26;;;;;;;0.20;0.20;;;2.90;99.90;;;;;;4931228;29;20670;-71
2021/12/28 08:49:53;;;;;;;0.10;0.10;;;2.90;99.90;;;;;;4936743;29;20611;-68
2021/12/28 08:52:20;;;;;;;0.10;0.10;;;3.00;99.90;;;;;;4934135;29;20654;-71
2021/12/28 08:54:49;;;;;;;0.10;0.10;;;3.00;99.90;;;;;;4932929;29;20631;-71
2021/12/28 08:57:16;;;;;;;0.10;0.10;;;3.00;99.90;;;;;;4934003;29;21102;-70
2021/12/28 08:59:42;;;;;;;0.10;0.10;;;3.00;99.90;;;;;;4929209;29;20679;-70
2021/12/28 09:02:10;;;;;;;0.10;0.10;;;3.10;99.90;;;;;;4930569;29;20755;-70
2021/12/28 09:04:42;;;;;;;0.10;0.10;;;3.10;99.90;;;;;;4929313;29;20660;-71
2021/12/28 09:07:09;;;;;;;0.10;0.10;;;3.10;99.90;;;;;;4932838;29;21036;-71
2021/12/28 09:09:36;;;;;;;0.10;0.10;;;3.10;99.90;;;;;;4934717;28;20658;-71
2021/12/28 09:12:05;;;;;;;0.10;0.10;;;3.10;99.90;;;;;;4931100;29;20738;-71
2021/12/28 09:14:33;;;;;;;0.10;0.10;;;3.10;99.90;;;;;;4948023;28;20639;-71
2021/12/28 09:17:00;;;;;;;0.10;0.10;;;3.10;99.90;;;;;;4931532;29;20742;-72
2021/12/28 09:19:27;;;;;;;0.10;0.10;;;3.20;99.90;;;;;;4932368;29;20690;-71
2021/12/28 09:21:55;;;;;;;0.10;0.10;;;3.20;99.90;;;;;;4939585;28;20659;-72
2021/12/28 09:24:21;;;;;;;0.10;0.10;;;3.20;99.90;;;;;;4927213;29;20651;-71
2021/12/28 09:26:48;;;;;;;0.10;0.10;;;3.20;99.90;;;;;;4933728;29;20662;-71
2021/12/28 09:29:17;;;;;;;0.10;0.10;;;3.10;99.90;;;;;;4932136;29;20690;-71
2021/12/28 09:31:44;;;;;;;0.10;0.10;;;3.40;99.90;;;;;;4933053;29;20650;-71
2021/12/28 09:34:10;;;;;;;0.10;0.10;;;3.60;99.90;;;;;;4932666;29;20654;-71
2021/12/28 09:36:40;;;;;;;0.10;0.10;;;3.70;99.90;;;;;;4933208;29;20611;-71
2021/12/28 09:39:07;;;;;;;0.10;0.10;;;3.80;99.90;;;;;;4935491;29;20615;-71
2021/12/28 09:41:34;;;;;;;0.10;0.10;;;4.00;99.90;;;;;;4934071;29;20658;-70
2021/12/28 09:44:01;;;;;;;0.10;0.10;;;4.00;99.90;;;;;;4927403;29;20618;-72
2021/12/28 09:46:29;;;;;;;0.10;0.10;;;3.90;99.90;;;;;;4925546;29;20683;-71
2021/12/28 09:48:56;;;;;;;0.10;0.10;;;3.80;99.90;;;;;;4931205;29;20734;-71
2021/12/28 09:51:23;;;;;;;0.10;0.10;;;3.80;99.90;;;;;;4927411;29;20707;-71
2021/12/28 09:53:52;;;;;;;0.10;0.10;;;3.70;99.90;;;;;;4930931;29;20623;-72
2021/12/28 09:56:19;;;;;;;0.10;0.10;;;3.70;99.90;;;;;;4931881;29;20638;-69
2021/12/28 09:58:46;;;;;;;0.10;0.10;;;3.70;99.90;;;;;;4931066;29;20690;-72
2021/12/28 10:01:13;;;;;;;0.10;0.10;;;3.60;99.90;;;;;;4935947;28;21145;-71
2021/12/28 10:03:42;;;;;;;0.10;0.10;;;3.60;99.90;;;;;;4935805;29;20623;-71
2021/12/28 10:06:16;;;;;;;0.10;0.10;;;3.60;99.90;;;;;;4930471;29;20651;-71
2021/12/28 10:08:44;;;;;;;0.10;0.10;;;3.60;99.90;;;;;;4947072;28;20634;-68
2021/12/28 10:11:12;;;;;;;0.10;0.10;;;3.60;99.90;;;;;;4930621;29;20668;-72
2021/12/28 10:13:39;;;;;;;0.10;0.10;;;3.60;99.90;;;;;;4932811;29;20611;-73
2021/12/28 10:16:07;;;;;;;0.10;0.10;;;3.70;99.90;;;;;;4928462;29;20629;-71
2021/12/28 10:18:34;;;;;;;0.10;0.10;;;3.60;99.90;;;;;;4930534;29;20663;-70
2021/12/28 10:21:04;;;;;;;0.10;0.10;;;3.60;99.90;;;;;;4926566;29;20769;-72
2021/12/28 10:23:34;;;;;;;0.10;0.10;;;3.60;99.90;;;;;;4928100;29;20630;-72
2021/12/28 10:26:05;;;;;;;0.00;0.00;;;3.60;99.90;;;;;;4930171;29;20663;-72
2021/12/28 10:28:34;;;;;;;0.10;0.10;;;3.60;99.90;;;;;;4930727;29;20637;-73
2021/12/28 10:31:04;;;;;;;0.10;0.10;;;3.60;99.90;;;;;;4930443;29;20655;-73
2021/12/28 10:33:36;;;;;;;0.10;0.10;;;3.60;99.90;;;;;;4933931;29;20614;-73
2021/12/28 10:36:08;;;;;;;0.10;0.10;;;3.70;99.90;;;;;;4944342;28;20624;-73
2021/12/28 10:38:36;;;;;;;0.10;0.10;;;3.70;99.90;;;;;;4934304;29;20720;-72
2021/12/28 10:41:07;;;;;;;0.10;0.10;;;3.70;99.90;;;;;;4930953;29;20770;-73
2021/12/28 10:43:37;;;;;;;0.10;0.10;;;3.70;99.90;;;;;;4929451;29;20638;-71
2021/12/28 10:46:06;;;;;;;0.10;0.10;;;3.70;99.90;;;;;;4931579;29;20717;-72
2021/12/28 10:48:37;;;;;;;0.10;0.10;;;3.70;99.90;;;;;;4931400;29;20627;-71
2021/12/28 10:51:09;;;;;;;0.10;0.10;;;3.70;99.90;;;;;;4930994;29;21586;-72
2021/12/28 10:53:54;;;;;;;0.10;0.10;;;3.70;99.90;;;;;;4930582;29;20627;-72
2021/12/28 10:56:22;;;;;;;0.10;0.10;;;3.80;99.90;;;;;;4930781;29;20619;-71
2021/12/28 10:58:52;;;;;;;0.13;0.13;;;3.80;99.90;;;;;;4931334;29;20638;-70
2021/12/28 11:01:24;;;;;;;0.10;0.10;;;3.90;99.90;;;;;;4928181;29;20676;-72
2021/12/28 11:03:53;;;;;;;0.10;0.10;;;3.90;99.90;;;;;;4949963;28;20635;-71
2021/12/28 11:06:24;;;;;;;0.10;0.10;;;3.90;99.90;;;;;;4945143;28;20655;-72
2021/12/28 11:08:54;;;;;;;0.10;0.10;;;4.00;99.90;;;;;;4933323;28;20734;-71
2021/12/28 11:11:24;;;;;;;0.10;0.10;;;4.00;99.90;;;;;;4943805;28;20663;-71
2021/12/28 11:13:54;;;;;;;0.10;0.10;;;4.00;99.90;;;;;;4930721;28;20639;-73
2021/12/28 11:16:26;;;;;;;0.10;0.10;;;4.00;99.90;;;;;;4930060;29;20628;-72
2021/12/28 11:18:54;;;;;;;0.10;0.10;;;4.00;99.90;;;;;;4930344;28;20678;-72
2021/12/28 11:21:25;;;;;;;0.10;0.10;;;4.10;99.90;;;;;;4927977;29;20670;-71
2021/12/28 11:23:55;;;;;;;0.10;0.10;;;4.10;99.90;;;;;;4928389;29;20662;-72
2021/12/28 11:26:25;;;;;;;0.10;0.10;;;4.10;99.90;;;;;;4929981;29;20663;-70
2021/12/28 11:28:57;;;;;;;0.10;0.10;;;4.20;99.90;;;;;;4932058;29;20611;-72
2021/12/28 11:31:27;;;;;;;0.10;0.10;;;4.20;99.90;;;;;;4926685;29;20717;-72
2021/12/28 11:33:59;;;;;;;0.10;0.10;;;4.20;99.90;;;;;;4929954;29;20715;-72
2021/12/28 11:36:32;;;;;;;0.10;0.10;;;4.20;99.90;;;;;;4928912;29;20634;-72
2021/12/28 11:39:01;;;;;;;0.10;0.10;;;4.30;99.90;;;;;;4932274;29;20629;-72
2021/12/28 11:41:28;;;;;;;0.10;0.10;;;4.40;99.90;;;;;;4924644;29;20663;-71
2021/12/28 11:43:56;;;;;;;0.10;0.10;;;4.60;99.90;;;;;;4929250;29;20611;-72
2021/12/28 11:46:24;;;;;;;0.10;0.10;;;5.00;99.90;;;;;;4926827;29;20662;-71
2021/12/28 11:48:52;;;;;;;0.10;0.10;;;5.20;99.90;;;;;;4927366;28;21006;-71
2021/12/28 11:51:22;;;;;;;0.10;0.10;;;4.90;99.90;;;;;;4927136;29;21062;-69
2021/12/28 11:53:52;;;;;;;0.10;0.10;;;5.00;99.90;;;;;;4932699;28;20645;-70
2021/12/28 11:56:21;;;;;;;0.10;0.10;;;5.10;99.90;;;;;;4931725;29;20695;-71
2021/12/28 11:59:01;;;;;;;0.10;0.10;;;5.00;99.90;;;;;;4930874;29;20615;-71
2021/12/28 12:01:54;;;;;;;0.10;0.10;;;5.30;99.90;;;;;;4928889;29;20646;-71
2021/12/28 12:04:45;;;;;;;0.10;0.10;;;5.30;99.90;;;;;;4949570;28;20658;-71
2021/12/28 12:07:23;;;;;;;0.10;0.10;;;5.40;99.90;;;;;;4929383;29;20674;-70
2021/12/28 12:10:08;;;;;;;0.10;0.10;;;5.00;99.90;;;;;;4935741;29;20618;-70
2021/12/28 12:12:48;;;;;;;0.10;0.10;;;5.10;99.90;;;;;;4932760;28;20627;-69
2021/12/28 12:15:17;;;;;;;0.10;0.10;;;5.20;99.90;;;;;;4931558;29;20622;-70
2021/12/28 12:17:45;;;;;;;0.10;0.10;;;5.10;99.90;;;;;;4928290;29;20681;-72
2021/12/28 12:20:27;;;;;;;0.10;0.10;;;4.90;99.90;;;;;;4933118;29;20610;-72
2021/12/28 12:22:56;;;;;;;0.10;0.10;;;5.10;99.90;;;;;;4933668;29;20639;-69
2021/12/28 12:25:31;;;;;;;0.10;0.10;;;5.20;99.90;;;;;;4931635;29;20647;-70
2021/12/28 12:28:00;;;;;;;0.10;0.10;;;5.30;99.90;;;;;;4930203;29;20753;-72
2021/12/28 12:30:49;;;;;;;0.10;0.10;;;5.30;99.90;;;;;;4931803;29;20658;-71
2021/12/28 12:33:17;;;;;;;0.10;0.10;;;5.20;99.90;;;;;;4932667;28;20646;-71
2021/12/28 12:35:50;;;;;;;0.10;0.10;;;5.30;99.90;;;;;;4931966;29;21031;-71
2021/12/28 12:38:36;;;;;;;0.10;0.10;;;5.20;99.90;;;;;;4933118;29;20634;-70
2021/12/28 12:41:13;;;;;;;0.10;0.10;;;5.10;99.90;;;;;;4931742;29;20674;-71
2021/12/28 12:43:47;;;;;;;0.10;0.10;;;4.70;99.90;;;;;;4930112;29;20634;-70
2021/12/28 12:46:20;;;;;;;0.10;0.10;;;5.00;99.90;;;;;;4932677;29;20657;-69
2021/12/28 12:49:12;;;;;;;0.10;0.10;;;4.80;99.90;;;;;;4934183;28;20626;-71
2021/12/28 12:51:45;;;;;;;0.10;0.10;;;4.80;99.90;;;;;;4929159;29;20663;-71
2021/12/28 12:54:19;;;;;;;0.10;0.10;;;5.10;99.90;;;;;;4929820;29;20627;-71
2021/12/28 12:57:07;;;;;;;0.10;0.10;;;4.90;99.90;;;;;;4933551;29;20619;-70
2021/12/28 12:59:48;;;;;;;0.10;0.10;;;5.00;99.90;;;;;;4932898;29;20659;-70
2021/12/28 13:02:23;;;;;;;0.10;0.10;;;4.90;99.90;;;;;;4925767;29;20730;-70
2021/12/28 13:05:01;;;;;;;0.10;0.10;;;5.00;99.90;;;;;;4933119;29;20622;-69
2021/12/28 13:07:31;;;;;;;0.10;0.10;;;4.90;99.90;;;;;;4924988;29;20746;-70
2021/12/28 13:10:02;;;;;;;0.10;0.10;;;4.70;99.90;;;;;;4926511;29;20631;-70